NCAR-RAP Real-Time Weather Data

Output produced by METARs form (23 January 2018  15:46 UTC)
found at http://weather.rap.ucar.edu/surface/
 
RJAA 231530Z 16004KT CAVOK M02/M09 Q1007 BECMG 30006KT
RJAA 231500Z 31005KT CAVOK 02/M10 Q1007 NOSIG
RJAA 231430Z 30007KT CAVOK 03/M11 Q1007 NOSIG
RJAA 231400Z 29005KT CAVOK 04/M10 Q1007 NOSIG
RJAA 231330Z 29005KT 250V320 CAVOK 04/M10 Q1007 NOSIG
RJAA 231300Z 28007KT 220V310 CAVOK 04/M09 Q1007 NOSIG
RJAA 231230Z 28004KT 240V310 CAVOK 04/M08 Q1006 NOSIG
RJAA 231200Z 29005KT CAVOK 05/M07 Q1006 NOSIG
RJAA 231130Z 30006KT 260V320 CAVOK 06/M06 Q1005 NOSIG
RJAA 231100Z 29005KT 250V320 CAVOK 06/M04 Q1005 NOSIG
RJAA 231030Z 31007KT 9999 FEW030 05/M00 Q1005 NOSIG
RJAA 231000Z 23009KT 9999 FEW030 08/M01 Q1003 BECMG 29008KT
RJAA 230930Z 22011KT 190V250 9999 FEW030 08/M02 Q1003 NOSIG RMK 1CU030 A2963
RJAA 230900Z 22014KT 9999 FEW030 09/M02 Q1003 NOSIG RMK 1CU030 A2962 MOD TURB OBS AT 0838Z OVER BINKS 10000FT IN DES B788 JAL872 AND MOD TURB OBS AT 0848Z OVER BINKS 10000FT IN DES B788 JAL750
RJAA 230830Z 22013G25KT 9999 FEW030 09/M01 Q1002 NOSIG RMK 1CU030 A2961
RJAA 230824Z 22015G25KT 9999 FEW030 09/M01 Q1002 RMK 1CU030 A2961
RJAA 230800Z 23008KT 9999 FEW020 09/M00 Q1003 BECMG 26006KT
RJAA 230730Z 24008KT 210V280 9999 FEW020 09/00 Q1002 BECMG 26006KT
RJAA 230700Z 28004KT 220V300 9999 FEW020 07/01 Q1002 WS R34R NOSIG
RJAA 230630Z 32011KT 9999 FEW020 06/01 Q1002 WS R34R NOSIG
RJAA 230600Z 24015G26KT 210V280 9999 FEW020 10/00 Q1002 BECMG 25014KT RMK 1CU020 A2959 MOD TURB OBS AT 0541Z 25NM E NARITA BTN 13000FT AND 9000FT IN DES B77W JAL9
RJAA 230530Z 24017G30KT 210V270 9999 FEW020 10/01 Q1001 BECMG 23016KT
RJAA 230500Z 23021G34KT 9999 FEW020 09/01 Q1000 NOSIG RMK 1CU020 A2955 LIGHT TO MOD TURB OBS AT 0450Z ON DEP COURSE RWY16R 1000FT AND BLW IN CMB B772 CPA523
RJAA 230430Z 22018G30KT 190V250 9999 FEW020 09/02 Q1000 NOSIG RMK 1CU020 A2954 MOD TURB OBS AT 0425Z 1NM S NARITA 1000FT AND BLW IN CMB B77W AFR275
RJAA 230400Z 22020G32KT 190V260 9999 FEW020 09/02 Q1000 NOSIG RMK 1CU020 A2954
RJAA 230331Z 22016G26KT 9999 FEW020 09/03 Q1001 RMK 1CU020 A2956
RJAA 230330Z 22017KT 9999 FEW020 09/03 Q1001 TEMPO 23018G30KT
RJAA 230317Z 23015G25KT 200V270 9999 FEW020 08/03 Q1001 RMK 1CU020 A2957
RJAA 230300Z 22009KT 9999 FEW020 08/03 Q1001 TEMPO 23016G28KT RMK 1CU020 A2957
RJAA 230230Z 21009KT 9999 FEW020 07/03 Q1002 TEMPO 23015G27KT
RJAA 230200Z 17006KT 150V230 9999 FEW020 05/02 Q1003 BECMG 23014KT TEMPO 23015G27KT
RJAA 230130Z 16006KT 140V220 9999 FEW020 04/01 Q1004 BECMG 23014KT
RJAA 230100Z 15005KT 120V180 9999 FEW020 03/M00 Q1005 NOSIG RMK 1CU020 A2969
RJAA 230030Z 15006KT 9000 FEW020 01/00 Q1006 NOSIG RMK 1CU020 A2971
RJAA 230000Z VRB01KT 9000 MIFG FEW020 M00/M01 Q1006 BECMG 23005KT RMK 1CU020 A2973 MIFG IS FREEZING
RJAA 222336Z 15002KT 9999 R16R/P1800N R16L/P1800N MIFG FEW020 M02/M02 Q1006 RMK 1CU020 A2973 MIFG IS FREEZING
RJAA 222333Z 15002KT 9999 R16R/0200VP1800U R16L/P1800N BCFG FEW020 M01/M02 Q1006 RMK 1CU020 A2973 BCFG IS FREEZING AND ON RWY16R
RJAA 222330Z 16002KT 9999 R16R/0150VP1800U R16L/P1800N BCFG FEW020 M01/M02 Q1006 NOSIG
RJAA 222326Z 17002KT 9999 R16R/0150VP1800U R16L/P1800N BCFG FEW020 M02/M02 Q1006 RMK 1CU020 A2973 BCFG IS FREEZING AND ON RWY16R
RJAA 222310Z 00000KT 9999 MIFG FEW020 M01/M02 Q1007 RMK 1CU020 A2974 MIFG IS FREEZING
RJAA 222300Z 00000KT 9000 R16R/1100VP1800U R16L/0550VP1800D MIFG FEW020 M03/M04 Q1007 BECMG 23005KT
RJAA 222230Z 22002KT 8000 MIFG FEW020 M02/M03 Q1007 NOSIG RMK 1CU020 A2975 MIFG IS FREEZING
RJAA 222200Z 25003KT 7000 MIFG FEW020 M02/M03 Q1007 BECMG 23005KT RMK 1CU020 A2975 MIFG IS FREEZING
RJAA 222135Z 22005KT 4500 MIFG BR FEW020 M02/M03 Q1007 RMK 1CU020 A2975 MIFG IS FREEZING
RJAA 222130Z 22004KT 5000 MIFG BR FEW020 M02/M03 Q1007 TEMPO 4000 BR
RJAA 222100Z 23003KT 8000 MIFG FEW015 M02/M02 Q1006 TEMPO 4000 BR RMK 1SC015 A2973 MIFG IS FREEZING
RJAA 222030Z 24003KT 9000 FEW015 SCT080 M01/M02 Q1006 NOSIG RMK 1SC015 3AC080 A2973
RJAA 222000Z 26004KT 9999 FEW015 BKN080 M01/M01 Q1007 NOSIG RMK 1SC015 6AC080 A2974
RJAA 221930Z 26004KT 9999 FEW015 BKN080 M00/M01 Q1007 NOSIG RMK 1SC015 7AC080 A2974
RJAA 221900Z 27006KT 9999 FEW015 BKN060 BKN090 M00/M01 Q1006 NOSIG RMK 1SC015 6SC060 7AC090 A2973
RJAA 221830Z 28006KT 9999 FEW015 BKN090 M01/M01 Q1006 NOSIG RMK 1SC015 7AC090 A2972
RJAA 221800Z 30007KT 9999 FEW015 SCT050 BKN090 M01/M02 Q1006 NOSIG RMK 1SC015 3SC050 6AC090 A2971
RJAA 221730Z 30008KT 9999 FEW015 SCT040 BKN090 M00/M01 Q1006 NOSIG RMK 1SC015 3SC040 7AC090 A2972
RJAA 221700Z 29009KT 9999 FEW015 SCT060 BKN100 M00/M01 Q1006 NOSIG RMK 1SC015 4SC060 7AC100 A2972
RJAA 221630Z 32013KT 9999 FEW015 BKN070 01/M01 Q1005 NOSIG RMK 1SC015 7AC070 A2970
RJAA 221600Z 32014KT 9999 FEW015 SCT035 BKN060 01/M01 Q1005 NOSIG RMK 1SC015 3SC035 7SC060 A2969
RJAA 221530Z 33019KT 9999 -SNRA FEW005 BKN045 01/M00 Q1005 NOSIG RMK 1ST005 7SC045 A2968
RJAA 221520Z 33020KT 5000 -SNRA BR FEW003 SCT015 BKN045 00/M00 Q1005 RMK 1ST003 3SC015 7SC045 A2968
RJAA 221514Z 33020KT 3200 -SNRA BR FEW003 SCT012 BKN015 00/M00 Q1005 RMK 1ST003 3SC012 7SC015 A2969
RJAA 221500Z 33021KT 2500 -SN BR FEW003 SCT007 BKN012 00/M00 Q1005 TEMPO FEW003 BKN007 RMK 1ST003 4ST007 6SC012 A2969
RJAA 221430Z 33019KT 1600 -SNRA BR FEW003 SCT005 BKN007 00/M01 Q1005 NOSIG RMK 1ST003 3ST005 7ST007 A2969
RJAA 221418Z 32015KT 2200 -SNRA BR FEW003 BKN007 00/M00 Q1005 RMK 1ST003 7ST007 A2969
RJAA 221405Z 29008KT 3000 -RASN BR FEW003 BKN007 BKN015 00/M00 Q1005 RMK 1ST003 5ST007 7SC015 A2968
RJAA 221400Z 34023KT 3000 -RASN BR FEW003 BKN007 BKN015 00/M00 Q1005 NOSIG RMK 1ST003 5ST007 7SC015 A2968
RJAA 221345Z 34020KT 2500 -RASN BR FEW003 SCT005 BKN007 00/M00 Q1005 RMK 1ST003 3ST005 7ST007 A2968
RJAA 221330Z 34020KT 1600 R34L/P1800N R34R/P1800N -SN BR FEW002 BKN005 BKN007 00/M00 Q1005 NOSIG
RJAA 221313Z 34020KT 1000 R34L/1800U R34R/1600VP1800U SN BR FEW002 BKN005 BKN007 00/M00 Q1005 RMK 1ST002 6ST005 7ST007 A2970 P/FR
RJAA 221305Z 35023KT 0800 R34L/1600U R34R/1600U SN BR FEW002 SCT003 BKN004 00/M00 Q1005 RMK 1ST002 3ST003 7ST004 A2970 P/FR
RJAA 221300Z 34022KT 0800 R34L/1500N R34R/1500N SN BR FEW002 SCT003 BKN004 00/M00 Q1005 TEMPO 0700 SN
RJAA 221250Z 34022KT 0800 R34L/1400U R34R/1400U SN BR FEW002 SCT003 BKN004 00/M00 Q1006 RMK 1ST002 4ST003 7ST004 A2972
RJAA 221239Z 33021KT 0700 R34L/1300V1600D R34R/1200D SN BR FEW002 BKN003 BKN004 00/M00 Q1007 RMK 1ST002 6ST003 7ST004 A2974
RJAA 221237Z 33021KT 0700 R34L/1400D R34R/1300N SN BR FEW002 BKN003 BKN004 00/M00 Q1007 RMK 1ST002 6ST003 7ST004 A2975
RJAA 221230Z 33021KT 0800 R34L/1600D R34R/1400D SN BR FEW002 SCT003 BKN004 00/M00 Q1007 TEMPO 0500 SN
RJAA 221215Z 32019KT 0800 R34L/P1800N R34R/1300V1800D SN BR FEW002 SCT003 BKN004 00/M00 Q1007 RMK 1ST002 4ST003 7ST004 A2976 2000S
RJAA 221212Z 32020KT 0800 R34L/P1800N R34R/1600N SN BR FEW002 SCT003 BKN004 00/M00 Q1007 RMK 1ST002 4ST003 7ST004 A2976 1800S
RJAA 221203Z 33019G29KT 280V360 0800 R34L/P1800N R34R/1200V1500N SN BR FEW002 BKN003 BKN004 00/M00 Q1007 RMK 1ST002 5ST003 7ST004 A2974
RJAA 221200Z 32018KT 280V350 0800 R34L/P1800N R34R/1200V1700D SN BR FEW002 BKN003 BKN004 00/M00 Q1007 TEMPO 0500 SN
RJAA 221147Z 33020G30KT 300V360 0600 R34L/1800D R34R/1300N SN BR FEW002 BKN003 BKN004 00/M00 Q1007 RMK 1ST002 6ST003 7ST004 A2974
RJAA 221130Z 33018KT 0600 R34L/P1800N R34R/1500N SN BR FEW002 BKN003 BKN004 00/M00 Q1008 TEMPO 0500 SN
RJAA 221118Z 33018KT 0700 R34L/P1800N R34R/1600N SN BR FEW002 BKN003 BKN004 00/M00 Q1008 RMK 1ST002 5ST003 7ST004 A2977
RJAA 221100Z 34017KT 0700 R34L/P1800N R34R/1700U SN BR FEW002 SCT003 BKN004 00/M00 Q1008 TEMPO 0500 SN
RJAA 221045Z 35019KT 0700 R34L/1800U R34R/1100VP1800D SN BR FEW002 BKN003 BKN004 00/M00 Q1008 RMK 1ST002 6ST003 7ST004 A2978
RJAA 221037Z 35018KT 0800 R34L/1800D R34R/1400VP1800U SN BR FEW002 BKN003 BKN004 00/M00 Q1008 RMK 1ST002 6ST003 7ST004 A2978 P/FR
RJAA 221030Z 35018KT 0900 R34L/P1800U R34R/1400U SN BR FEW002 BKN003 BKN004 00/M00 Q1008 TEMPO 0700 SN
RJAA 221000Z 35016KT 0800 R34L/1700D R34R/1500D SN BR FEW002 BKN003 00/M00 Q1009 TEMPO 0500 SN
RJAA 220945Z 35016KT 0700 R34L/1500V1800U R34R/1200U SN BR FEW002 BKN003 00/M00 Q1010 RMK 1ST002 7ST003 A2984
RJAA 220930Z 34016KT 0700 R34L/1400N R34R/1100D SN BR FEW002 BKN003 00/M01 Q1011 TEMPO 0500 SN
RJAA 220900Z 35020KT 0700 R34L/1600U R34R/1100N SN BR FEW002 BKN003 BKN004 00/M01 Q1011 TEMPO 0500 SN
RJAA 220842Z 35018KT 0800 R34L/1700D R34R/1300V1800D SN BR FEW002 SCT003 BKN004 00/M00 Q1011 RMK 1ST002 3ST003 7ST004 A2987 2000S
RJAA 220830Z 35018KT 0800 R34L/1800N R34R/1700N SN BR FEW002 BKN004 00/M00 Q1012 TEMPO 0700 SN
RJAA 220800Z 36017KT 0900 R34L/P1800N R34R/P1800N SN BR FEW002 BKN004 00/M00 Q1011 NOSIG RMK 1ST002 7ST004 A2987 2000S
RJAA 220746Z 35014KT 1000 R34L/P1800N R34R/P1800N SN BR FEW002 BKN004 01/M00 Q1012 RMK 1ST002 7ST004 A2990
RJAA 220730Z 35013KT 1600 -SN BR FEW003 SCT006 BKN008 01/00 Q1012 TEMPO 1200 -SN BR FEW003 BKN004 RMK 1ST003 4ST006 7ST008 A2990
RJAA 220725Z 35014KT 1600 -SN BR FEW003 SCT006 BKN008 01/00 Q1012 RMK 1ST003 4ST006 7ST008 A2990
RJAA 220713Z 36015KT 2400 -SNRA BR FEW004 BKN008 BKN010 02/01 Q1012 RMK 1ST004 5ST008 7ST010 A2990
RJAA 220700Z 36017KT 4000 -SNRA BR FEW004 BKN008 BKN010 02/01 Q1013 TEMPO 03018G28KT RMK 1ST004 5ST008 7ST010 A2991
RJAA 220634Z 01018KT 4500 -RASN BR FEW005 SCT008 BKN013 02/01 Q1013 RMK 1ST005 4ST008 7SC013 A2992
RJAA 220630Z 01018KT 6000 -RA FEW005 SCT008 BKN013 02/01 Q1013 TEMPO 03018G28KT 4000 -RASN BR FEW005 BKN008
RJAA 220605Z 02016G26KT 8000 -RA FEW005 SCT008 BKN013 02/01 Q1013 RMK 1ST005 3ST008 7SC013 A2993
RJAA 220600Z 02017KT 8000 -RA FEW005 SCT008 BKN013 02/01 Q1013 TEMPO 03018G28KT FEW005 BKN008
RJAA 220530Z 03017KT 8000 -RA FEW005 SCT008 BKN013 03/01 Q1013 WS R34R TEMPO 03018G28KT FEW005 BKN008
RJAA 220500Z 03016KT 5000 -RA BR FEW007 SCT009 BKN012 03/01 Q1015 TEMPO 03018G28KT 4000 -RASN BR FEW005 BKN008 RMK 1ST007 4ST009 7SC012 A2997
RJAA 220430Z 02015G25KT 9999 -RA FEW007 SCT009 BKN012 03/01 Q1015 TEMPO FEW005 BKN008
RJAA 220428Z 02015G25KT 9999 -RA FEW007 SCT009 BKN012 03/01 Q1015 RMK 1ST007 4ST009 7SC012 A3000
RJAA 220400Z 03016KT 8000 -RA FEW005 SCT008 BKN012 03/02 Q1016 TEMPO 03016G26KT FEW005 BKN008
RJAA 220330Z 03012KT 7000 -RA FEW005 SCT008 BKN012 03/01 Q1016 TEMPO FEW005 BKN008
RJAA 220300Z 03013KT 5000 -RA BR FEW007 BKN012 BKN020 03/01 Q1017 TEMPO 4000 -RASN BR FEW005 BKN008 RMK 2ST007 5SC012 7SC020 A3004
RJAA 220237Z 03013KT 360V060 4500 -RASN BR FEW009 BKN013 BKN025 04/01 Q1018 RMK 1ST009 5SC013 7SC025 A3006
RJAA 220230Z 03013KT 360V060 6000 -RASN FEW009 BKN015 BKN025 04/01 Q1018 TEMPO 03015G25KT FEW008 BKN012 RMK 1ST009 5SC015 7SC025 A3006
RJAA 220200Z 03014KT 9999 -RA FEW015 BKN025 04/01 Q1018 WS R34L TEMPO 03015G25KT
RJAA 220146Z 03015G26KT 9999 -RA FEW020 BKN030 05/00 Q1019 RMK 1CU020 7SC030 A3009
RJAA 220130Z 03014KT 9999 -RA FEW020 BKN030 05/M01 Q1019 NOSIG RMK 1CU020 7SC030 A3010
RJAA 220109Z 04015G25KT 9999 -RA FEW025 BKN030 05/M01 Q1019 RMK 1CU025 7SC030 A3011
RJAA 220100Z 04017KT 9999 FEW025 BKN030 05/M01 Q1019 NOSIG RMK 1CU025 7SC030 A3012
RJAA 220030Z 04015KT 9999 FEW025 BKN030 05/M00 Q1020 NOSIG RMK 1CU025 7SC030 A3013
RJAA 220000Z 05012KT 010V070 9999 FEW025 BKN030 06/00 Q1020 NOSIG RMK 1CU025 7SC030 A3013
RJAA 212330Z 02007KT 9999 FEW030 BKN035 05/M00 Q1020 NOSIG RMK 1CU030 7SC035 A3012
RJAA 212300Z 01009KT 9999 FEW030 BKN035 03/M01 Q1020 NOSIG RMK 1CU030 7SC035 A3013
RJAA 212230Z 01008KT 9999 FEW020 BKN045 BKN070 03/M01 Q1020 NOSIG RMK 1CU020 5SC045 7AC070 A3013
RJAA 212200Z 01008KT 9999 FEW020 SCT035 BKN060 02/M02 Q1020 NOSIG RMK 1CU020 4SC035 6SC060 A3012
RJAA 212130Z 02007KT 9999 FEW020 SCT040 BKN060 03/M02 Q1020 NOSIG RMK 1CU020 4SC040 7SC060 A3012
RJAA 212100Z 36008KT 9999 FEW020 BKN045 BKN060 02/M03 Q1020 NOSIG RMK 1CU020 5SC045 7SC060 A3012
RJAA 212030Z 36007KT 9999 FEW020 BKN045 BKN/// 02/M03 Q1019 NOSIG
RJAA 212000Z 35006KT 9999 FEW020 SCT040 BKN/// 02/M03 Q1019 NOSIG RMK 1CU020 3SC040 A3010
RJAA 211930Z 01005KT 9999 FEW020 SCT035 BKN/// 02/M03 Q1019 NOSIG
RJAA 211900Z 01007KT 9999 FEW030 BKN170 02/M03 Q1018 NOSIG RMK 1CU030 7AC170 A3008
RJAA 211830Z 01008KT 9999 FEW035 BKN150 02/M03 Q1018 NOSIG RMK 1CU035 7AC150 A3007
RJAA 211800Z 36009KT 9999 FEW035 BKN160 02/M03 Q1018 NOSIG RMK 1CU035 7AC160 A3008
RJAA 211730Z 35008KT 9999 FEW035 BKN170 03/M03 Q1018 NOSIG RMK 1CU035 7AC170 A3008
RJAA 211700Z 33008KT 9999 FEW030 SCT035 BKN/// 02/M02 Q1019 NOSIG
RJAA 211630Z 35009KT 9999 FEW030 03/M02 Q1018 NOSIG RMK 1CU030 A3008
RJAA 211600Z 35006KT 9999 FEW030 SCT/// 02/M02 Q1018 NOSIG
RJAA 211530Z 01008KT 9999 FEW030 SCT035 04/M01 Q1018 NOSIG RMK 1CU030 3SC035 A3008
RJAA 211500Z 34008KT 9999 FEW030 BKN035 04/M01 Q1018 NOSIG RMK 1CU030 7SC035 A3008
RJAA 211430Z 35009KT 9999 FEW030 BKN/// 04/M00 Q1018 NOSIG
RJAA 211400Z 01011KT 9999 FEW020 BKN/// 04/00 Q1017 NOSIG
RJAA 211330Z 01011KT 9999 FEW020 BKN025 BKN/// 04/02 Q1018 NOSIG RMK 1CU020 6SC025 A3006
RJAA 211300Z 01010KT 9999 FEW025 BKN/// 04/02 Q1017 NOSIG RMK 1CU025 A3005
RJAA 211230Z 01008KT 9999 FEW025 SCT/// 05/04 Q1017 NOSIG
RJAA 211200Z 33003KT 9999 FEW025 SCT/// 05/04 Q1017 NOSIG RMK 1CU025 A3004
RJAA 211130Z 33004KT 9999 FEW025 SCT/// 05/04 Q1017 NOSIG
RJAA 211100Z 34003KT 9999 MIFG FEW030 03/02 Q1016 NOSIG RMK 1CU030 A3002
RJAA 211030Z 20001KT 9999 MIFG FEW030 04/03 Q1016 BECMG 01005KT
RJAA 211000Z VRB01KT 9999 FEW030 04/02 Q1015 BECMG 01005KT RMK 1CU030 A2999
RJAA 210930Z 14002KT 9999 FEW030 05/03 Q1015 BECMG 01005KT RMK 1CU030 A2998
RJAA 210900Z 14003KT 9999 FEW030 05/03 Q1015 NOSIG RMK 1CU030 A2997
RJAA 210830Z 16005KT 9999 FEW030 06/04 Q1014 NOSIG RMK 1CU030 A2996
RJAA 210800Z 15004KT 9999 FEW030 07/04 Q1014 NOSIG RMK 1CU030 A2996
RJAA 210730Z 12005KT 9999 FEW030 08/04 Q1014 NOSIG RMK 1CU030 A2995 LIGHT PS TURB OBS AT 0702Z 15NM S NARITA BTN 12000FT AND 13000FT IN CMB A320 JJP513
RJAA 210700Z 11004KT 9999 FEW030 09/04 Q1014 NOSIG RMK 1CU030 A2995
RJAA 210630Z 09004KT 9999 FEW025 09/04 Q1014 NOSIG RMK 1CU025 A2995
RJAA 210600Z 08005KT 9999 FEW025 SCT050 10/04 Q1014 NOSIG RMK 1CU025 3SC050 A2995 MOD TURB OBS AT 0545Z 10NM N BINKS 8000FT B738 ANA2178
RJAA 210530Z 09004KT 060V140 9999 FEW025 BKN030 BKN050 10/04 Q1014 NOSIG RMK 1CU025 5CU030 7SC050 A2995 MOD ICING OBS AT 0506Z 30NM SE NARITA BTN 9000FT AND 6000FT IN DES A333 CRK608
RJAA 210500Z VRB02KT 9999 FEW025 BKN030 BKN050 10/03 Q1014 BECMG 12005KT RMK 1CU025 5CU030 7SC050 A2995
RJAA 210430Z 17004KT 140V210 9999 FEW025 SCT040 10/03 Q1014 NOSIG RMK 1CU025 4SC040 A2995
RJAA 210400Z VRB02KT 9999 FEW020 SCT030 BKN040 10/04 Q1014 BECMG 12005KT